Terminal Aerodrome Forecast
Issued by NWS

Home | Current Version | Previous Version | Text Only | Print | Product List | Glossary On
Versions: 1 2 3 4 5 6 7 8 9 10 11 12 13 14 15 16 17 18 19 20 21 22 23 24 25 26 27 28 29 30
000
FTUS46 KLOX 220132 AAB
TAFSBA
TAF AMD
KSBA 220132Z 2202/2224 15005KT 1/2SM FG OVC002
     FM220300 33005KT P6SM SCT035 SCT070
      TEMPO 2203/2205 33015G25KT
     FM221800 26010KT P6SM SCT035
     FM222000 28015G22KT P6SM BKN035=

USA.gov is the U.S. government's official web portal to all federal, state and local government web resources and services.